createdAt,value
2018-12-25T00:02:23.066Z,1.00
2018-12-25T00:04:52.652Z,1.10
2018-12-25T00:07:22.173Z,1.10
2018-12-25T00:09:51.760Z,1.00
2018-12-25T00:12:21.289Z,1.00
2018-12-25T00:14:50.859Z,1.00
2018-12-25T00:17:20.381Z,1.10
2018-12-25T00:19:49.899Z,1.00
2018-12-25T00:22:19.530Z,1.00
2018-12-25T00:24:49.059Z,0.90
2018-12-25T00:27:18.695Z,0.90
2018-12-25T00:29:48.230Z,0.90
2018-12-25T00:32:17.867Z,0.90
2018-12-25T00:34:47.398Z,0.80
2018-12-25T00:37:16.918Z,0.80
2018-12-25T00:39:46.513Z,0.80
2018-12-25T00:42:16.064Z,0.80
2018-12-25T00:44:45.617Z,0.80
2018-12-25T00:47:15.143Z,0.80
2018-12-25T00:49:44.774Z,0.80
2018-12-25T00:52:14.279Z,0.80
2018-12-25T00:54:43.863Z,0.60
2018-12-25T00:57:13.426Z,0.60
2018-12-25T00:59:42.954Z,0.60
2018-12-25T01:02:12.514Z,0.50
2018-12-25T01:04:42.030Z,0.40
2018-12-25T01:07:11.572Z,0.50
2018-12-25T01:09:41.090Z,0.50
2018-12-25T01:12:10.641Z,0.40
2018-12-25T01:14:40.183Z,0.40
2018-12-25T01:17:09.741Z,0.50
2018-12-25T01:19:39.307Z,0.50
2018-12-25T01:22:08.833Z,0.50
2018-12-25T01:24:38.421Z,0.50
2018-12-25T01:27:07.935Z,0.50
2018-12-25T01:29:37.461Z,0.50
2018-12-25T01:32:07.023Z,0.40
2018-12-25T01:34:36.578Z,0.50
2018-12-25T01:37:06.179Z,0.50
2018-12-25T01:39:35.694Z,0.50
2018-12-25T01:42:05.346Z,0.60
2018-12-25T01:44:34.874Z,0.50
2018-12-25T01:47:04.404Z,0.60
2018-12-25T01:49:33.984Z,0.50
2018-12-25T01:52:03.662Z,0.50
2018-12-25T01:54:33.337Z,0.60
2018-12-25T01:57:02.885Z,0.60
2018-12-25T01:59:32.674Z,0.60
2018-12-25T02:02:02.340Z,0.50
2018-12-25T02:04:31.895Z,0.60
2018-12-25T02:07:01.440Z,0.60
2018-12-25T02:09:30.983Z,0.60
2018-12-25T02:12:00.512Z,0.60
2018-12-25T02:14:30.051Z,0.60
2018-12-25T02:16:59.610Z,0.50
2018-12-25T02:19:29.208Z,0.50
2018-12-25T02:21:58.724Z,0.40
2018-12-25T02:24:28.383Z,0.50
2018-12-25T02:26:57.954Z,0.50
2018-12-25T02:29:27.558Z,0.50
2018-12-25T02:31:57.102Z,0.50
2018-12-25T02:34:27.042Z,0.50
2018-12-25T02:36:56.593Z,0.50
2018-12-25T02:39:26.146Z,0.50
2018-12-25T02:41:55.728Z,0.50
2018-12-25T02:44:25.274Z,0.60
2018-12-25T02:46:54.947Z,0.50
2018-12-25T02:49:24.453Z,0.50
2018-12-25T02:51:54.024Z,0.50
2018-12-25T02:54:23.602Z,0.50
2018-12-25T02:56:53.188Z,0.50
2018-12-25T02:59:22.749Z,0.50
2018-12-25T03:01:52.294Z,0.50
2018-12-25T03:04:21.873Z,0.50
2018-12-25T03:06:51.379Z,0.50
2018-12-25T03:09:20.935Z,0.50
2018-12-25T03:11:50.815Z,0.50
2018-12-25T03:14:20.830Z,0.50
2018-12-25T03:16:50.414Z,0.60
2018-12-25T03:19:19.949Z,0.50
2018-12-25T03:21:49.540Z,0.60
2018-12-25T03:24:19.075Z,0.50
2018-12-25T03:26:48.616Z,0.50
2018-12-25T03:29:18.226Z,0.50
2018-12-25T03:31:47.793Z,0.50
2018-12-25T03:34:17.310Z,0.50
2018-12-25T03:36:46.879Z,0.40
2018-12-25T03:39:16.438Z,0.50
2018-12-25T03:41:46.422Z,0.40
2018-12-25T03:44:16.366Z,0.40
2018-12-25T03:46:45.946Z,0.40
2018-12-25T03:49:15.483Z,0.40
2018-12-25T03:51:45.052Z,0.40
2018-12-25T03:54:14.584Z,0.30
2018-12-25T03:56:44.131Z,0.30
2018-12-25T03:59:13.696Z,0.40
2018-12-25T04:01:43.226Z,0.40
2018-12-25T04:04:12.786Z,0.30
2018-12-25T04:06:42.307Z,0.30
2018-12-25T04:09:11.867Z,0.30
2018-12-25T04:11:41.438Z,0.30
2018-12-25T04:14:10.989Z,0.30
2018-12-25T04:16:40.621Z,0.30
2018-12-25T04:19:10.143Z,0.30
2018-12-25T04:21:39.739Z,0.30
2018-12-25T04:24:09.280Z,0.30
2018-12-25T04:26:38.861Z,0.30
2018-12-25T04:29:08.422Z,0.30
2018-12-25T04:31:37.954Z,0.30
2018-12-25T04:34:07.516Z,0.30
2018-12-25T04:36:37.083Z,0.30
2018-12-25T04:39:07.995Z,0.30
2018-12-25T04:41:37.529Z,0.30
2018-12-25T04:44:07.195Z,0.30
2018-12-25T04:46:36.766Z,0.30
2018-12-25T04:49:06.301Z,0.30
2018-12-25T04:51:35.954Z,0.20
2018-12-25T04:54:05.475Z,0.20
2018-12-25T04:56:35.028Z,0.20
2018-12-25T04:59:04.559Z,0.30
2018-12-25T05:01:34.343Z,0.30
2018-12-25T05:04:03.888Z,0.30
2018-12-25T05:06:33.401Z,0.30
2018-12-25T05:09:02.959Z,0.20
2018-12-25T05:11:32.527Z,0.30
2018-12-25T05:14:02.112Z,0.30
2018-12-25T05:16:31.681Z,0.30
2018-12-25T05:19:01.344Z,0.30
2018-12-25T05:21:30.875Z,0.30
2018-12-25T05:24:00.463Z,0.30
2018-12-25T05:26:30.006Z,0.30
2018-12-25T05:28:59.663Z,0.30
2018-12-25T05:31:29.215Z,0.30
2018-12-25T05:33:58.774Z,0.30
2018-12-25T05:36:28.454Z,0.30
2018-12-25T05:38:57.983Z,0.30
2018-12-25T05:41:27.503Z,0.30
2018-12-25T05:43:57.083Z,0.30
2018-12-25T05:46:26.598Z,0.30
2018-12-25T05:48:56.177Z,0.30
2018-12-25T05:51:25.692Z,0.30
2018-12-25T05:53:55.409Z,0.30
2018-12-25T05:56:24.925Z,0.30
2018-12-25T05:58:55.702Z,0.30
2018-12-25T06:01:25.312Z,0.30
2018-12-25T06:03:55.002Z,0.30
2018-12-25T06:06:24.664Z,0.30
2018-12-25T06:08:54.378Z,0.30
2018-12-25T06:11:23.931Z,0.30
2018-12-25T06:13:53.569Z,0.30
2018-12-25T06:16:23.095Z,0.30
2018-12-25T06:18:53.238Z,0.30
2018-12-25T06:21:22.787Z,0.40
2018-12-25T06:23:52.454Z,0.30
2018-12-25T06:26:21.999Z,0.40
2018-12-25T06:28:51.541Z,0.40
2018-12-25T06:31:21.470Z,0.40
2018-12-25T06:33:51.085Z,0.50
2018-12-25T06:39:48.563Z,0.40
2018-12-25T06:42:18.206Z,0.50
2018-12-25T06:44:47.767Z,0.50
2018-12-25T06:47:17.326Z,0.40
2018-12-25T06:49:46.894Z,0.40
2018-12-25T06:52:16.476Z,0.40
2018-12-25T06:54:46.104Z,0.40
2018-12-25T06:57:15.698Z,0.40
2018-12-25T06:59:45.273Z,0.40
2018-12-25T07:02:14.824Z,0.40
2018-12-25T07:04:44.399Z,0.40
2018-12-25T07:07:13.936Z,0.40
2018-12-25T07:09:43.591Z,0.40
2018-12-25T07:12:13.136Z,0.40
2018-12-25T07:14:43.657Z,0.40
2018-12-25T07:17:13.330Z,0.40
2018-12-25T07:19:42.924Z,0.40
2018-12-25T07:22:12.454Z,0.40
2018-12-25T07:24:42.058Z,0.40
2018-12-25T07:27:11.612Z,0.40
2018-12-25T07:29:41.248Z,0.40
2018-12-25T07:32:10.820Z,0.40
2018-12-25T07:34:40.383Z,0.40
2018-12-25T07:37:09.951Z,0.50
2018-12-25T07:39:39.541Z,0.50
2018-12-25T07:42:09.083Z,0.50
2018-12-25T07:44:38.693Z,0.50
2018-12-25T07:47:08.395Z,0.50
2018-12-25T07:49:38.005Z,0.50
2018-12-25T07:52:07.531Z,0.50
2018-12-25T07:54:37.115Z,0.60
2018-12-25T07:57:07.064Z,0.60
2018-12-25T07:59:36.592Z,0.60
2018-12-25T08:02:06.331Z,0.60
2018-12-25T08:04:36.247Z,0.70
2018-12-25T08:07:05.763Z,0.70
2018-12-25T08:09:35.315Z,0.80
2018-12-25T08:12:04.955Z,0.80
2018-12-25T08:14:34.532Z,0.80
2018-12-25T08:17:04.208Z,0.90
2018-12-25T08:19:33.828Z,0.90
2018-12-25T08:22:03.344Z,0.90
2018-12-25T08:24:32.939Z,0.90
2018-12-25T08:27:02.512Z,1.00
2018-12-25T08:29:32.063Z,1.00
2018-12-25T08:32:01.599Z,1.00
2018-12-25T08:34:31.223Z,1.00
2018-12-25T08:37:01.044Z,1.00
2018-12-25T08:39:30.574Z,1.00
2018-12-25T08:42:00.231Z,1.10
2018-12-25T08:44:29.778Z,1.10
2018-12-25T08:47:02.729Z,1.10
2018-12-25T08:49:30.565Z,1.10
2018-12-25T08:52:00.131Z,1.20
2018-12-25T08:54:29.695Z,1.20
2018-12-25T08:56:59.285Z,1.30
2018-12-25T08:59:28.836Z,1.40
2018-12-25T09:01:58.354Z,1.40
2018-12-25T09:04:27.915Z,1.40
2018-12-25T09:06:57.464Z,1.40
2018-12-25T09:09:27.030Z,1.40
2018-12-25T09:11:56.623Z,1.40
2018-12-25T09:14:26.162Z,1.40
2018-12-25T09:16:55.686Z,1.60
2018-12-25T09:19:25.291Z,1.50
2018-12-25T09:21:54.851Z,1.70
2018-12-25T09:24:24.412Z,1.60
2018-12-25T09:26:53.958Z,1.70
2018-12-25T09:29:23.607Z,1.70
2018-12-25T09:31:53.138Z,1.80
2018-12-25T09:34:22.690Z,1.90
2018-12-25T09:36:52.242Z,2.00
2018-12-25T09:39:21.802Z,2.00
2018-12-25T09:41:51.374Z,2.10
2018-12-25T09:44:20.897Z,2.10
2018-12-25T09:46:50.557Z,2.10
2018-12-25T09:49:20.103Z,2.10
2018-12-25T09:51:54.536Z,2.10
2018-12-25T09:54:20.863Z,2.10
2018-12-25T09:56:50.420Z,2.10
2018-12-25T09:59:19.990Z,2.10
2018-12-25T10:01:49.528Z,2.10
2018-12-25T10:04:19.207Z,2.10
2018-12-25T10:06:48.839Z,2.10
2018-12-25T10:09:18.370Z,2.20
2018-12-25T10:11:47.965Z,2.30
2018-12-25T10:14:17.507Z,2.40
2018-12-25T10:16:47.109Z,2.30
2018-12-25T10:19:18.806Z,2.50
2018-12-25T10:21:48.410Z,2.50
2018-12-25T10:24:17.970Z,2.60
2018-12-25T10:26:47.545Z,2.60
2018-12-25T10:29:17.099Z,2.60
2018-12-25T10:31:46.671Z,2.70
2018-12-25T10:34:16.217Z,2.80
2018-12-25T10:36:45.918Z,2.80
2018-12-25T10:39:15.441Z,2.80
2018-12-25T10:41:45.013Z,2.80
2018-12-25T10:44:14.661Z,2.80
2018-12-25T10:46:44.187Z,2.70
2018-12-25T10:49:13.764Z,2.70
2018-12-25T10:51:43.316Z,2.70
2018-12-25T10:54:12.835Z,2.70
2018-12-25T10:56:42.408Z,2.70
2018-12-25T10:59:11.919Z,2.70
2018-12-25T11:01:41.502Z,2.70
2018-12-25T11:04:11.052Z,2.70
2018-12-25T11:06:40.735Z,2.70
2018-12-25T11:09:10.313Z,2.70
2018-12-25T11:11:39.934Z,2.70
2018-12-25T11:14:09.460Z,2.70
2018-12-25T11:16:39.049Z,2.70
2018-12-25T11:19:08.564Z,2.70
2018-12-25T11:21:38.147Z,2.80
2018-12-25T11:24:07.702Z,2.60
2018-12-25T11:26:37.264Z,2.60
2018-12-25T11:29:07.305Z,2.60
2018-12-25T11:31:37.082Z,2.70
2018-12-25T11:34:06.663Z,2.70
2018-12-25T11:36:36.153Z,2.70
2018-12-25T11:39:07.438Z,2.70
2018-12-25T11:41:37.049Z,2.70
2018-12-25T11:44:06.711Z,2.70
2018-12-25T11:46:36.245Z,2.70
2018-12-25T11:49:07.722Z,2.70
2018-12-25T11:51:37.299Z,2.70
2018-12-25T11:54:06.911Z,2.80
2018-12-25T11:56:36.477Z,2.70
2018-12-25T11:59:06.037Z,2.70
2018-12-25T12:01:35.612Z,2.60
2018-12-25T12:04:05.167Z,2.70
2018-12-25T12:06:34.876Z,2.80
2018-12-25T12:09:06.293Z,2.80
2018-12-25T12:11:35.879Z,2.90
2018-12-25T12:14:05.435Z,2.90
2018-12-25T12:16:35.028Z,2.80
2018-12-25T12:19:04.564Z,2.90
2018-12-25T12:21:34.179Z,2.90
2018-12-25T12:24:03.778Z,2.90
2018-12-25T12:26:33.357Z,2.90
2018-12-25T12:29:03.200Z,2.90
2018-12-25T12:31:32.768Z,2.90
2018-12-25T12:34:02.403Z,3.00
2018-12-25T12:36:32.173Z,3.10
2018-12-25T12:39:01.783Z,3.10
2018-12-25T12:41:31.383Z,3.20
2018-12-25T12:44:01.148Z,3.20
2018-12-25T12:46:30.782Z,3.20
2018-12-25T12:49:00.356Z,3.10
2018-12-25T12:51:29.893Z,3.00
2018-12-25T12:53:59.606Z,3.00
2018-12-25T12:56:29.662Z,3.10
2018-12-25T12:58:59.317Z,3.10
2018-12-25T13:01:28.847Z,3.10
2018-12-25T13:03:58.456Z,3.10
2018-12-25T13:06:28.037Z,3.20
2018-12-25T13:08:57.607Z,3.10
2018-12-25T13:11:27.271Z,3.10
2018-12-25T13:14:02.678Z,3.20
2018-12-25T13:16:40.698Z,3.20
2018-12-25T13:19:10.286Z,3.10
2018-12-25T13:21:39.960Z,3.10
2018-12-25T13:24:10.399Z,3.00
2018-12-25T13:26:39.999Z,3.00
2018-12-25T13:29:09.642Z,3.00
2018-12-25T13:31:39.194Z,2.80
2018-12-25T13:34:09.101Z,2.80
2018-12-25T13:36:38.735Z,2.80
2018-12-25T13:39:08.850Z,2.90
2018-12-25T13:41:38.507Z,2.80
2018-12-25T13:44:08.024Z,2.80
2018-12-25T13:46:37.577Z,2.80
2018-12-25T13:49:07.143Z,2.80
2018-12-25T13:51:36.687Z,2.80
2018-12-25T13:54:06.268Z,2.70
2018-12-25T13:56:35.814Z,2.70
2018-12-25T13:59:05.466Z,2.70
2018-12-25T14:01:35.011Z,2.70
2018-12-25T14:04:04.530Z,2.80
2018-12-25T14:06:34.142Z,2.80
2018-12-25T14:09:04.243Z,2.90
2018-12-25T14:11:33.807Z,2.90
2018-12-25T14:14:03.383Z,2.90
2018-12-25T14:16:32.978Z,2.90
2018-12-25T14:19:02.489Z,2.90
2018-12-25T14:21:32.048Z,2.90
2018-12-25T14:24:01.631Z,2.90
2018-12-25T14:26:31.203Z,2.80
2018-12-25T14:29:00.781Z,2.80
2018-12-25T14:31:30.483Z,2.90
2018-12-25T14:34:00.107Z,2.90
2018-12-25T14:36:30.996Z,2.80
2018-12-25T14:39:00.734Z,2.80
2018-12-25T14:41:30.330Z,2.90
2018-12-25T14:44:05.125Z,2.80
2018-12-25T14:46:31.203Z,2.80
2018-12-25T14:49:00.811Z,2.80
2018-12-25T14:51:30.780Z,2.80
2018-12-25T14:54:00.351Z,2.80
2018-12-25T14:56:29.889Z,2.80
2018-12-25T14:58:59.498Z,2.70
2018-12-25T15:01:29.027Z,2.70
2018-12-25T15:03:58.594Z,2.80
2018-12-25T15:06:28.148Z,2.70
2018-12-25T15:08:57.726Z,2.70
2018-12-25T15:11:27.352Z,2.60
2018-12-25T15:13:56.924Z,2.60
2018-12-25T15:16:26.519Z,2.60
2018-12-25T15:18:56.058Z,2.60
2018-12-25T15:21:25.633Z,2.60
2018-12-25T15:23:55.274Z,2.50
2018-12-25T15:26:24.822Z,2.50
2018-12-25T15:28:54.422Z,2.50
2018-12-25T15:31:23.946Z,2.50
2018-12-25T15:33:53.546Z,2.50
2018-12-25T15:36:23.079Z,2.50
2018-12-25T15:38:52.683Z,2.50
2018-12-25T15:41:22.355Z,2.50
2018-12-25T15:43:51.949Z,2.40
2018-12-25T15:46:21.703Z,2.40
2018-12-25T15:48:51.264Z,2.30
2018-12-25T15:51:20.858Z,2.30
2018-12-25T15:53:50.548Z,2.30
2018-12-25T15:56:20.106Z,2.30
2018-12-25T15:58:49.628Z,2.30
2018-12-25T16:01:19.227Z,2.30
2018-12-25T16:03:48.797Z,2.30
2018-12-25T16:06:18.476Z,2.30
2018-12-25T16:08:48.055Z,2.30
2018-12-25T16:11:17.587Z,2.20
2018-12-25T16:13:47.191Z,2.20
2018-12-25T16:16:16.729Z,2.20
2018-12-25T16:18:46.303Z,2.10
2018-12-25T16:21:15.854Z,2.20
2018-12-25T16:23:45.872Z,2.30
2018-12-25T16:26:15.485Z,2.30
2018-12-25T16:28:45.052Z,2.40
2018-12-25T16:31:14.727Z,2.40
2018-12-25T16:33:44.287Z,2.30
2018-12-25T16:36:13.850Z,2.30
2018-12-25T16:38:43.462Z,2.20
2018-12-25T16:41:13.068Z,2.30
2018-12-25T16:43:42.671Z,2.30
2018-12-25T16:46:12.266Z,2.30
2018-12-25T16:48:41.830Z,2.20
2018-12-25T16:51:11.411Z,2.20
2018-12-25T16:53:42.001Z,2.20
2018-12-25T16:56:11.618Z,2.30
2018-12-25T16:58:41.180Z,2.30
2018-12-25T17:01:10.739Z,2.30
2018-12-25T17:03:40.344Z,2.20
2018-12-25T17:06:09.938Z,2.30
2018-12-25T17:08:39.580Z,2.30
2018-12-25T17:11:09.137Z,2.20
2018-12-25T17:13:38.655Z,2.20
2018-12-25T17:16:08.237Z,2.30
2018-12-25T17:18:37.946Z,2.30
2018-12-25T17:21:07.495Z,2.30
2018-12-25T17:23:37.037Z,2.30
2018-12-25T17:26:06.628Z,2.30
2018-12-25T17:28:36.171Z,2.20
2018-12-25T17:31:05.748Z,2.20
2018-12-25T17:33:35.288Z,2.20
2018-12-25T17:36:04.810Z,2.10
2018-12-25T17:38:34.390Z,2.10
2018-12-25T17:41:03.907Z,2.10
2018-12-25T17:43:33.575Z,2.10
2018-12-25T17:46:03.935Z,2.10
2018-12-25T17:48:33.487Z,2.10
2018-12-25T17:51:03.075Z,2.10
2018-12-25T17:53:32.611Z,2.10
2018-12-25T17:56:02.220Z,2.10
2018-12-25T17:58:31.741Z,2.10
2018-12-25T18:01:01.288Z,2.00
2018-12-25T18:03:30.854Z,2.00
2018-12-25T18:06:00.426Z,1.90
2018-12-25T18:08:29.966Z,2.00
2018-12-25T18:10:59.617Z,2.00
2018-12-25T18:13:29.313Z,2.00
2018-12-25T18:15:58.949Z,1.90
2018-12-25T18:18:28.647Z,1.80
2018-12-25T18:20:58.255Z,1.80
2018-12-25T18:23:27.894Z,1.80
2018-12-25T18:25:57.344Z,1.70
2018-12-25T18:28:26.938Z,1.70
2018-12-25T18:30:56.466Z,1.60
2018-12-25T18:33:26.143Z,1.60
2018-12-25T18:35:55.667Z,1.60
2018-12-25T18:38:25.298Z,1.60
2018-12-25T18:40:54.935Z,1.60
2018-12-25T18:43:24.522Z,1.60
2018-12-25T18:45:54.137Z,1.60
2018-12-25T18:48:23.687Z,1.60
2018-12-25T18:50:53.366Z,1.60
2018-12-25T18:53:22.900Z,1.60
2018-12-25T18:55:52.450Z,1.60
2018-12-25T18:58:22.003Z,1.50
2018-12-25T19:00:51.574Z,1.50
2018-12-25T19:03:21.144Z,1.50
2018-12-25T19:05:50.671Z,1.50
2018-12-25T19:08:20.304Z,1.50
2018-12-25T19:10:49.829Z,1.60
2018-12-25T19:13:19.362Z,1.50
2018-12-25T19:15:50.776Z,1.40
2018-12-25T19:18:20.390Z,1.50
2018-12-25T19:20:49.934Z,1.50
2018-12-25T19:23:19.522Z,1.40
2018-12-25T19:25:49.044Z,1.30
2018-12-25T19:28:18.599Z,1.30
2018-12-25T19:30:48.138Z,1.20
2018-12-25T19:33:17.694Z,1.20
2018-12-25T19:35:47.238Z,1.20
2018-12-25T19:38:16.790Z,1.10
2018-12-25T19:40:46.384Z,1.10
2018-12-25T19:43:15.994Z,1.10
2018-12-25T19:45:45.774Z,1.10
2018-12-25T19:48:15.380Z,1.00
2018-12-25T19:50:44.914Z,1.00
2018-12-25T19:53:14.458Z,0.90
2018-12-25T19:55:44.094Z,0.90
2018-12-25T19:58:13.599Z,0.80
2018-12-25T20:00:43.391Z,0.80
2018-12-25T20:03:37.830Z,0.70
2018-12-25T20:06:39.186Z,0.70
2018-12-25T20:09:58.694Z,0.70
2018-12-25T20:13:39.478Z,0.70
2018-12-25T20:16:55.351Z,0.80
2018-12-25T20:19:37.212Z,0.70
2018-12-25T20:22:53.538Z,0.60
2018-12-25T20:26:11.774Z,0.60
2018-12-25T20:29:34.454Z,0.50
2018-12-25T20:32:35.231Z,0.40
2018-12-25T20:35:44.856Z,0.50
2018-12-25T20:39:03.551Z,0.50
2018-12-25T20:42:10.078Z,0.40
2018-12-25T20:45:23.910Z,0.40
2018-12-25T20:48:28.463Z,0.40
2018-12-25T20:51:43.827Z,0.40
2018-12-25T20:54:49.992Z,0.40
2018-12-25T20:58:02.522Z,0.40
2018-12-25T21:01:07.110Z,0.30
2018-12-25T21:04:23.622Z,0.40
2018-12-25T21:07:38.559Z,0.40
2018-12-25T21:11:22.177Z,0.40
2018-12-25T21:14:19.386Z,0.40
2018-12-25T21:17:24.571Z,0.40
2018-12-25T21:20:50.282Z,0.40
2018-12-25T21:23:56.048Z,0.30
2018-12-25T21:27:01.085Z,0.30
2018-12-25T21:29:30.627Z,0.40
2018-12-25T21:32:00.213Z,0.40
2018-12-25T21:34:29.818Z,0.30
2018-12-25T21:36:59.352Z,0.20
2018-12-25T21:39:28.885Z,0.20
2018-12-25T21:41:59.090Z,0.20
2018-12-25T21:44:28.903Z,0.20
2018-12-25T21:46:58.592Z,0.10
2018-12-25T21:49:28.190Z,0.10
2018-12-25T21:51:59.368Z,0.10
2018-12-25T21:54:29.016Z,0.20
2018-12-25T21:56:58.611Z,0.20
2018-12-25T21:59:28.146Z,0.30
2018-12-25T22:01:57.694Z,0.20
2018-12-25T22:04:27.367Z,0.20
2018-12-25T22:06:56.972Z,0.20
2018-12-25T22:09:26.508Z,0.10
2018-12-25T22:11:56.075Z,0.20
2018-12-25T22:14:25.617Z,0.20
2018-12-25T22:16:55.186Z,0.20
2018-12-25T22:19:24.728Z,0.20
2018-12-25T22:21:54.246Z,0.20
2018-12-25T22:24:23.826Z,0.20
2018-12-25T22:26:53.371Z,0.20
2018-12-25T22:29:22.998Z,0.20
2018-12-25T22:31:52.538Z,0.10
2018-12-25T22:34:22.142Z,0.10
2018-12-25T22:36:51.646Z,0.00
2018-12-25T22:39:21.172Z,0.10
2018-12-25T22:41:50.753Z,0.10
2018-12-25T22:44:20.323Z,0.10
2018-12-25T22:46:49.891Z,0.10
2018-12-25T22:49:19.457Z,0.00
2018-12-25T22:51:49.107Z,0.00
2018-12-25T22:54:18.632Z,-0.10
2018-12-25T22:56:48.206Z,-0.10
2018-12-25T22:59:18.723Z,-0.20
2018-12-25T23:01:48.316Z,-0.20
2018-12-25T23:04:17.912Z,-0.30
2018-12-25T23:06:47.485Z,-0.40
2018-12-25T23:09:17.344Z,-0.50
2018-12-25T23:11:46.929Z,-0.60
2018-12-25T23:14:16.466Z,-0.70
2018-12-25T23:16:46.113Z,-0.70
2018-12-25T23:19:15.670Z,-0.80
2018-12-25T23:21:45.244Z,-0.80
2018-12-25T23:24:14.795Z,-0.80
2018-12-25T23:26:44.463Z,-0.80
2018-12-25T23:29:14.518Z,-0.80
2018-12-25T23:31:44.068Z,-0.80
2018-12-25T23:34:13.659Z,-0.80
2018-12-25T23:36:43.186Z,-0.80
2018-12-25T23:39:12.753Z,-0.80
2018-12-25T23:41:42.391Z,-0.80
2018-12-25T23:44:11.914Z,-0.80
2018-12-25T23:46:41.519Z,-0.80
2018-12-25T23:49:11.059Z,-0.70
2018-12-25T23:51:40.632Z,-0.70
2018-12-25T23:54:10.201Z,-0.70
2018-12-25T23:56:39.833Z,-0.60
2018-12-25T23:59:09.392Z,-0.60
